Time;durP1;ratioP1;P1;durP2;ratioP2;P2;SDS_P1;SDS_P2;PMS_P1;PMS_P2;Temp;Humidity;BMP_temperature;BMP_pressure;BME280_temperature;BME280_humidity;BME280_pressure;Samples;Min_cycle;Max_cycle;Signal;HPM_P1;HPM_P2
2023/01/27 00:00:38;;;;;;;;;;;;;;;-0.83;86.55;98677.91;105320;1263;99361;-65
2023/01/27 00:03:06;;;;;;;;;;;;;;;-0.84;86.42;98672.40;105348;1257;99240;-65
2023/01/27 00:05:33;;;;;;;;;;;;;;;-0.85;86.53;98670.55;105389;1251;112568;-64
2023/01/27 00:08:00;;;;;;;;;;;;;;;-0.85;86.56;98667.10;105287;1258;100526;-65
2023/01/27 00:10:28;;;;;;;;;;;;;;;-0.86;86.34;98666.29;105312;1251;99236;-65
2023/01/27 00:15:40;;;;;;;;;;;;;;;-0.82;86.43;98666.05;105296;1256;100465;-65
2023/01/27 00:18:08;;;;;;;;;;;;;;;-0.77;86.33;98663.87;105267;1251;99326;-65
2023/01/27 00:26:09;;;;;;;;;;;;;;;-0.61;86.02;98675.06;105597;1257;100567;-65
2023/01/27 00:28:37;;;;;;;;;;;;;;;-0.53;86.23;98669.34;105289;1258;100511;-64
2023/01/27 00:31:07;;;;;;;;;;;;;;;-0.46;85.86;98667.86;105331;1264;112437;-64
2023/01/27 00:33:34;;;;;;;;;;;;;;;-0.40;85.67;98672.27;105127;1259;99346;-64
2023/01/27 00:36:05;;;;;;;;;;;;;;;-0.40;85.50;98675.94;105357;1258;99338;-64
2023/01/27 00:38:39;;;;;;;;;;;;;;;-0.39;85.53;98673.35;105370;1264;100015;-64
2023/01/27 00:41:18;;;;;;;;;;;;;;;-0.33;86.10;98677.94;105351;1251;100488;-64
2023/01/27 00:43:46;;;;;;;;;;;;;;;-0.25;85.84;98675.11;105274;1264;113086;-64
2023/01/27 00:46:14;;;;;;;;;;;;;;;-0.21;85.69;98672.86;105336;1265;100488;-64
2023/01/27 00:48:41;;;;;;;;;;;;;;;-0.20;85.46;98673.43;105333;1257;99383;-66
2023/01/27 00:51:08;;;;;;;;;;;;;;;-0.27;85.09;98675.69;105383;1257;99255;-64
2023/01/27 00:53:35;;;;;;;;;;;;;;;-0.36;85.38;98673.37;105279;1258;99317;-65
2023/01/27 00:56:03;;;;;;;;;;;;;;;-0.40;85.53;98674.20;105028;1255;99351;-64
2023/01/27 00:58:29;;;;;;;;;;;;;;;-0.43;85.74;98673.30;105295;1251;99270;-70
2023/01/27 01:01:00;;;;;;;;;;;;;;;-0.44;85.78;98671.33;105237;1257;99414;-69
2023/01/27 01:03:31;;;;;;;;;;;;;;;-0.46;85.77;98668.61;105264;1257;99233;-67
2023/01/27 01:05:59;;;;;;;;;;;;;;;-0.47;85.77;98665.61;105372;1252;99215;-67
2023/01/27 01:08:27;;;;;;;;;;;;;;;-0.50;85.71;98665.95;105361;1265;113146;-70
2023/01/27 01:10:54;;;;;;;;;;;;;;;-0.53;85.75;98666.98;105207;1258;99261;-70
2023/01/27 01:13:21;;;;;;;;;;;;;;;-0.57;85.74;98669.76;105296;1257;99335;-70
2023/01/27 01:15:48;;;;;;;;;;;;;;;-0.64;85.73;98664.51;105356;1261;99919;-66
2023/01/27 01:18:15;;;;;;;;;;;;;;;-0.70;85.91;98658.89;105328;1257;99278;-69
2023/01/27 01:20:42;;;;;;;;;;;;;;;-0.72;86.12;98659.77;105582;1257;99173;-67
2023/01/27 01:23:10;;;;;;;;;;;;;;;-0.73;86.17;98661.10;105321;1257;99378;-67
2023/01/27 01:25:37;;;;;;;;;;;;;;;-0.75;86.10;98663.76;105319;1264;99263;-66
2023/01/27 01:28:04;;;;;;;;;;;;;;;-0.78;85.90;98664.55;105343;1265;99265;-67
2023/01/27 01:30:33;;;;;;;;;;;;;;;-0.81;85.98;98659.48;105410;1251;99315;-70
2023/01/27 01:33:00;;;;;;;;;;;;;;;-0.83;86.04;98660.90;105305;1265;99300;-66
2023/01/27 01:35:27;;;;;;;;;;;;;;;-0.84;86.04;98662.61;105377;1265;99230;-66
2023/01/27 01:37:54;;;;;;;;;;;;;;;-0.87;86.01;98660.71;105343;1251;99322;-67
2023/01/27 01:40:22;;;;;;;;;;;;;;;-0.87;86.20;98660.45;105337;1264;99911;-67
2023/01/27 01:42:51;;;;;;;;;;;;;;;-0.89;86.10;98659.48;105393;1251;99200;-70
2023/01/27 01:45:30;;;;;;;;;;;;;;;-0.93;86.26;98659.31;105336;1265;99305;-66
2023/01/27 01:48:13;;;;;;;;;;;;;;;-0.92;86.14;98659.59;105378;1266;99259;-67
2023/01/27 01:50:41;;;;;;;;;;;;;;;-0.94;86.14;98657.46;105349;1257;107589;-66
2023/01/27 01:53:09;;;;;;;;;;;;;;;-0.97;86.16;98655.55;105373;1255;99256;-66
2023/01/27 01:55:38;;;;;;;;;;;;;;;-0.98;86.45;98653.50;105552;1257;99311;-66
2023/01/27 01:58:07;;;;;;;;;;;;;;;-0.98;86.41;98653.88;105244;1257;113184;-67
2023/01/27 02:00:34;;;;;;;;;;;;;;;-0.98;86.44;98655.83;105267;1257;99252;-66
2023/01/27 02:03:02;;;;;;;;;;;;;;;-0.97;86.46;98656.26;105289;1265;99230;-69
2023/01/27 02:05:33;;;;;;;;;;;;;;;-0.97;86.44;98654.88;105384;1257;100554;-66
2023/01/27 02:08:00;;;;;;;;;;;;;;;-0.99;86.34;98654.50;105343;1257;99236;-65
2023/01/27 02:10:27;;;;;;;;;;;;;;;-1.02;86.13;98655.20;105352;1251;99158;-66
2023/01/27 02:12:55;;;;;;;;;;;;;;;-1.03;86.24;98649.80;105292;1257;100567;-66
2023/01/27 02:15:22;;;;;;;;;;;;;;;-1.03;86.37;98647.77;105375;1257;99370;-65
2023/01/27 02:17:49;;;;;;;;;;;;;;;-1.02;86.33;98649.98;105485;1261;99265;-66
2023/01/27 02:20:34;;;;;;;;;;;;;;;-1.00;86.46;98649.10;105188;1264;100544;-66
2023/01/27 02:23:10;;;;;;;;;;;;;;;-1.00;86.18;98649.64;105140;1257;113134;-65
2023/01/27 02:25:49;;;;;;;;;;;;;;;-0.99;86.09;98648.75;105260;1251;99256;-71
2023/01/27 02:28:16;;;;;;;;;;;;;;;-0.94;86.29;98647.33;105311;1258;108264;-69
2023/01/27 02:30:43;;;;;;;;;;;;;;;-0.88;86.09;98646.17;105339;1256;99919;-69
2023/01/27 02:33:11;;;;;;;;;;;;;;;-0.83;85.97;98644.76;105338;1257;99249;-69
2023/01/27 02:35:43;;;;;;;;;;;;;;;-0.80;85.96;98644.92;105329;1256;99675;-68
2023/01/27 02:38:11;;;;;;;;;;;;;;;-0.74;85.92;98638.15;105310;1257;99567;-67
2023/01/27 02:40:39;;;;;;;;;;;;;;;-0.70;85.56;98644.96;105354;1251;108639;-66
2023/01/27 02:43:06;;;;;;;;;;;;;;;-0.71;85.44;98645.16;105339;1265;99291;-69
2023/01/27 02:45:33;;;;;;;;;;;;;;;-0.63;85.71;98644.98;105380;1258;99438;-66
2023/01/27 02:48:00;;;;;;;;;;;;;;;-0.53;85.92;98643.91;105366;1274;100538;-68
2023/01/27 02:50:27;;;;;;;;;;;;;;;-0.49;85.41;98646.35;105296;1256;99288;-67
2023/01/27 02:52:54;;;;;;;;;;;;;;;-0.45;85.96;98640.20;105340;1257;99283;-68
2023/01/27 02:55:21;;;;;;;;;;;;;;;-0.43;85.57;98638.84;105384;1264;99358;-67
2023/01/27 02:57:48;;;;;;;;;;;;;;;-0.41;85.61;98639.92;105240;1257;99919;-67
2023/01/27 03:00:16;;;;;;;;;;;;;;;-0.40;85.87;98639.52;105394;1251;99338;-68
2023/01/27 03:02:43;;;;;;;;;;;;;;;-0.38;85.31;98643.16;105357;1267;107196;-70
2023/01/27 03:05:10;;;;;;;;;;;;;;;-0.44;85.24;98645.16;105176;1257;99368;-66
2023/01/27 03:07:37;;;;;;;;;;;;;;;-0.52;85.29;98643.42;105232;1257;99219;-67
2023/01/27 03:10:04;;;;;;;;;;;;;;;-0.58;85.44;98643.35;105239;1251;99300;-65
2023/01/27 03:12:31;;;;;;;;;;;;;;;-0.59;85.93;98647.73;105768;1257;99418;-65
2023/01/27 03:20:30;;;;;;;;;;;;;;;-0.82;85.82;98644.98;105362;1257;99374;-65
2023/01/27 03:22:56;;;;;;;;;;;;;;;-0.84;86.08;98646.55;105270;1266;100439;-65
2023/01/27 03:25:23;;;;;;;;;;;;;;;-0.86;86.29;98648.58;105303;1264;100078;-66
2023/01/27 03:27:50;;;;;;;;;;;;;;;-0.87;86.36;98651.99;105290;1257;99258;-66
2023/01/27 03:30:17;;;;;;;;;;;;;;;-0.93;86.08;98651.95;105196;1256;99438;-65
2023/01/27 03:32:47;;;;;;;;;;;;;;;-1.02;86.10;98651.29;105365;1257;99343;-66
2023/01/27 03:35:15;;;;;;;;;;;;;;;-1.06;86.26;98652.05;105294;1258;99375;-65
2023/01/27 03:46:18;;;;;;;;;;;;;;;-1.17;86.67;98647.31;105231;1252;99173;-71
2023/01/27 03:48:52;;;;;;;;;;;;;;;-1.20;86.85;98651.42;105330;1257;113450;-71
2023/01/27 03:51:42;;;;;;;;;;;;;;;-1.19;86.93;98644.96;105370;1257;99246;-70
2023/01/27 03:54:09;;;;;;;;;;;;;;;-1.19;86.85;98645.05;105246;1251;108668;-71
2023/01/27 03:56:36;;;;;;;;;;;;;;;-1.21;86.84;98642.43;105303;1256;99359;-69
2023/01/27 03:59:02;;;;;;;;;;;;;;;-1.23;86.95;98641.52;105319;1258;99154;-66
2023/01/27 04:01:29;;;;;;;;;;;;;;;-1.29;87.08;98640.22;105286;1257;99351;-65
2023/01/27 04:06:57;;;;;;;;;;;;;;;-1.32;87.66;98645.74;105350;1251;108105;-66
2023/01/27 04:09:28;;;;;;;;;;;;;;;-1.35;87.72;98645.05;105295;1258;99249;-67
2023/01/27 04:11:58;;;;;;;;;;;;;;;-1.34;87.86;98642.88;105361;1251;99233;-67
2023/01/27 04:14:32;;;;;;;;;;;;;;;-1.32;87.73;98641.14;105309;1255;112489;-65
2023/01/27 04:17:10;;;;;;;;;;;;;;;-1.27;87.81;98640.15;105262;1256;99345;-64
2023/01/27 04:19:37;;;;;;;;;;;;;;;-1.22;87.66;98637.52;105261;1274;108534;-65
2023/01/27 04:22:05;;;;;;;;;;;;;;;-1.16;87.56;98638.02;105296;1266;99245;-65
2023/01/27 04:24:32;;;;;;;;;;;;;;;-1.12;87.57;98636.64;105286;1256;99293;-64
2023/01/27 04:27:00;;;;;;;;;;;;;;;-1.09;87.45;98636.08;105227;1255;100603;-64
2023/01/27 04:29:29;;;;;;;;;;;;;;;-1.02;87.45;98639.42;105314;1257;99229;-65
2023/01/27 04:31:56;;;;;;;;;;;;;;;-0.99;87.09;98636.96;105358;1251;107616;-64
2023/01/27 04:34:24;;;;;;;;;;;;;;;-1.02;87.20;98640.19;105343;1257;99351;-64
2023/01/27 04:36:51;;;;;;;;;;;;;;;-1.00;87.29;98635.60;105405;1251;99271;-65
2023/01/27 04:39:19;;;;;;;;;;;;;;;-1.07;87.05;98636.16;105390;1257;113166;-64
2023/01/27 04:41:47;;;;;;;;;;;;;;;-1.14;87.13;98635.59;105203;1256;181914;-64
2023/01/27 04:44:14;;;;;;;;;;;;;;;-1.24;87.20;98630.27;105314;1257;108522;-64
2023/01/27 04:46:41;;;;;;;;;;;;;;;-1.32;87.19;98625.44;105242;1264;99773;-65
2023/01/27 04:49:08;;;;;;;;;;;;;;;-1.40;87.44;98628.48;105381;1255;100539;-64
2023/01/27 04:51:35;;;;;;;;;;;;;;;-1.47;87.47;98629.67;105327;1257;99249;-64
2023/01/27 04:54:04;;;;;;;;;;;;;;;-1.55;87.58;98636.98;105150;1257;99363;-64
2023/01/27 04:56:43;;;;;;;;;;;;;;;-1.61;87.95;98638.56;105353;1257;99316;-64
2023/01/27 04:59:11;;;;;;;;;;;;;;;-1.65;88.40;98640.55;105192;1257;99247;-64
2023/01/27 05:01:38;;;;;;;;;;;;;;;-1.66;88.75;98642.70;105176;1251;99335;-64
2023/01/27 05:04:05;;;;;;;;;;;;;;;-1.66;88.98;98645.02;105591;1270;99314;-64
2023/01/27 05:06:32;;;;;;;;;;;;;;;-1.69;88.99;98646.02;105177;1274;99350;-66
2023/01/27 05:09:00;;;;;;;;;;;;;;;-1.70;89.10;98649.10;105198;1255;99359;-70
2023/01/27 05:11:27;;;;;;;;;;;;;;;-1.69;89.15;98652.95;105309;1257;99240;-69
2023/01/27 05:13:54;;;;;;;;;;;;;;;-1.64;89.23;98654.25;105322;1257;99326;-70
2023/01/27 05:16:22;;;;;;;;;;;;;;;-1.61;89.20;98654.85;105319;1254;99261;-69
2023/01/27 05:18:50;;;;;;;;;;;;;;;-1.57;89.22;98655.48;105333;1257;99219;-68
2023/01/27 05:21:22;;;;;;;;;;;;;;;-1.53;89.12;98659.17;105244;1264;100595;-64
2023/01/27 05:23:49;;;;;;;;;;;;;;;-1.52;88.88;98664.57;105300;1255;99258;-64
2023/01/27 05:26:23;;;;;;;;;;;;;;;-1.49;88.91;98661.52;105360;1255;99230;-64
2023/01/27 05:28:51;;;;;;;;;;;;;;;-1.45;88.99;98657.80;105310;1257;113515;-65
2023/01/27 05:31:22;;;;;;;;;;;;;;;-1.39;88.88;98657.81;105066;1257;99263;-67
2023/01/27 05:33:51;;;;;;;;;;;;;;;-1.31;88.87;98657.92;105063;1256;107998;-66
2023/01/27 05:36:19;;;;;;;;;;;;;;;-1.30;88.32;98654.63;105044;1264;99829;-66
2023/01/27 05:38:46;;;;;;;;;;;;;;;-1.28;87.98;98662.13;104957;1259;100422;-66
2023/01/27 05:41:14;;;;;;;;;;;;;;;-1.25;88.11;98660.91;105173;1257;100548;-66
2023/01/27 05:43:42;;;;;;;;;;;;;;;-1.27;87.70;98658.18;105108;1257;99242;-66
2023/01/27 05:46:16;;;;;;;;;;;;;;;-1.33;88.03;98660.36;105137;1254;107319;-67
2023/01/27 05:48:45;;;;;;;;;;;;;;;-1.36;87.95;98662.61;105060;1258;99317;-66
2023/01/27 05:51:12;;;;;;;;;;;;;;;-1.39;88.27;98663.52;105127;1256;99244;-67
2023/01/27 05:53:41;;;;;;;;;;;;;;;-1.42;88.24;98666.46;105090;1258;113615;-66
2023/01/27 05:56:09;;;;;;;;;;;;;;;-1.43;88.44;98663.05;105117;1257;99256;-65
2023/01/27 05:58:37;;;;;;;;;;;;;;;-1.46;88.69;98666.52;105428;1268;108490;-68
2023/01/27 06:01:07;;;;;;;;;;;;;;;-1.49;88.82;98668.22;105048;1257;100491;-67
2023/01/27 06:03:34;;;;;;;;;;;;;;;-1.53;88.85;98668.61;105253;1255;99260;-64
2023/01/27 06:06:02;;;;;;;;;;;;;;;-1.56;89.05;98672.11;105267;1257;99231;-67
2023/01/27 06:08:29;;;;;;;;;;;;;;;-1.55;89.21;98664.17;105351;1257;99245;-64
2023/01/27 06:10:57;;;;;;;;;;;;;;;-1.51;88.94;98672.80;105280;1256;99298;-64
2023/01/27 06:13:23;;;;;;;;;;;;;;;-1.51;88.97;98672.21;105258;1269;99258;-64
2023/01/27 06:15:50;;;;;;;;;;;;;;;-1.50;88.98;98672.98;105193;1257;99258;-65
2023/01/27 06:18:18;;;;;;;;;;;;;;;-1.49;88.83;98676.94;105302;1254;99294;-66
2023/01/27 06:20:45;;;;;;;;;;;;;;;-1.47;88.76;98675.92;105323;1273;99281;-66
2023/01/27 06:23:14;;;;;;;;;;;;;;;-1.44;88.85;98677.92;105238;1257;99361;-65
2023/01/27 06:25:45;;;;;;;;;;;;;;;-1.42;88.45;98672.32;105196;1256;100512;-69
2023/01/27 06:28:12;;;;;;;;;;;;;;;-1.42;88.60;98681.60;105185;1254;99259;-74
2023/01/27 06:30:53;;;;;;;;;;;;;;;-1.41;88.59;98682.34;105257;1257;113208;-69
2023/01/27 06:33:20;;;;;;;;;;;;;;;-1.39;88.36;98683.30;105071;1254;100660;-69
2023/01/27 06:35:47;;;;;;;;;;;;;;;-1.43;88.64;98685.10;105251;1252;100685;-67
2023/01/27 06:38:14;;;;;;;;;;;;;;;-1.48;88.74;98689.75;105256;1256;99284;-67
2023/01/27 06:40:41;;;;;;;;;;;;;;;-1.54;88.83;98690.66;105273;1257;100533;-66
2023/01/27 06:43:10;;;;;;;;;;;;;;;-1.57;88.85;98695.09;105292;1256;100583;-66
2023/01/27 06:45:37;;;;;;;;;;;;;;;-1.59;89.09;98697.09;105286;1254;99172;-65
2023/01/27 06:48:04;;;;;;;;;;;;;;;-1.59;88.92;98701.13;105070;1256;100583;-66
2023/01/27 06:50:31;;;;;;;;;;;;;;;-1.56;89.19;98698.93;104993;1254;99253;-66
2023/01/27 06:53:05;;;;;;;;;;;;;;;-1.53;89.13;98699.80;105597;1267;100545;-66
2023/01/27 06:55:40;;;;;;;;;;;;;;;-1.52;88.91;98699.73;105003;1260;99567;-66
2023/01/27 06:58:08;;;;;;;;;;;;;;;-1.51;88.82;98699.59;105249;1256;108261;-67
2023/01/27 07:00:36;;;;;;;;;;;;;;;-1.49;88.95;98702.84;105073;1268;99354;-66
2023/01/27 07:03:04;;;;;;;;;;;;;;;-1.50;88.93;98704.48;105020;1254;99345;-66
2023/01/27 07:05:32;;;;;;;;;;;;;;;-1.50;88.93;98703.48;105062;1252;112866;-67
2023/01/27 07:07:59;;;;;;;;;;;;;;;-1.55;88.89;98706.85;105217;1256;100567;-66
2023/01/27 07:10:26;;;;;;;;;;;;;;;-1.60;88.99;98705.58;105145;1254;108644;-69
2023/01/27 07:13:02;;;;;;;;;;;;;;;-1.65;88.77;98706.20;105015;1269;99819;-66
2023/01/27 07:15:31;;;;;;;;;;;;;;;-1.67;89.03;98704.80;105052;1256;100484;-69
2023/01/27 07:17:59;;;;;;;;;;;;;;;-1.65;88.43;98709.33;105124;1256;112622;-65
2023/01/27 07:20:27;;;;;;;;;;;;;;;-1.61;88.19;98707.73;105093;1257;99268;-66
2023/01/27 07:23:02;;;;;;;;;;;;;;;-1.59;87.54;98705.10;105034;1254;108567;-66
2023/01/27 07:25:29;;;;;;;;;;;;;;;-1.60;86.97;98700.49;105191;1269;99212;-65
2023/01/27 07:27:57;;;;;;;;;;;;;;;-1.65;86.47;98702.60;105179;1256;100464;-66
2023/01/27 07:30:25;;;;;;;;;;;;;;;-1.69;86.43;98706.63;105373;1257;113331;-65
2023/01/27 07:32:54;;;;;;;;;;;;;;;-1.69;86.89;98704.85;105373;1257;99339;-66
2023/01/27 07:35:21;;;;;;;;;;;;;;;-1.69;86.49;98706.91;105321;1254;107654;-65
2023/01/27 07:37:48;;;;;;;;;;;;;;;-1.63;86.61;98709.30;105266;1256;99256;-65
2023/01/27 07:40:15;;;;;;;;;;;;;;;-1.60;85.74;98711.68;105257;1258;99335;-65
2023/01/27 07:42:42;;;;;;;;;;;;;;;-1.57;85.61;98712.23;105256;1256;99872;-65
2023/01/27 07:45:09;;;;;;;;;;;;;;;-1.54;85.70;98711.55;105274;1256;99323;-65
2023/01/27 07:47:36;;;;;;;;;;;;;;;-1.52;85.68;98712.14;105102;1268;99345;-67
2023/01/27 07:50:04;;;;;;;;;;;;;;;-1.53;85.83;98711.11;105191;1253;100538;-63
2023/01/27 07:52:31;;;;;;;;;;;;;;;-1.54;85.63;98714.61;105254;1257;99249;-73
2023/01/27 07:54:57;;;;;;;;;;;;;;;-1.56;85.57;98716.34;105066;1259;99353;-68
2023/01/27 07:57:24;;;;;;;;;;;;;;;-1.59;84.76;98716.43;105300;1256;100557;-67
2023/01/27 07:59:54;;;;;;;;;;;;;;;-1.62;84.33;98711.86;105288;1267;100544;-67
2023/01/27 08:02:22;;;;;;;;;;;;;;;-1.62;83.92;98709.16;105319;1256;99231;-67
2023/01/27 08:04:49;;;;;;;;;;;;;;;-1.61;83.51;98717.42;105229;1256;113497;-67
2023/01/27 08:07:19;;;;;;;;;;;;;;;-1.59;83.40;98717.95;105184;1257;100560;-65
2023/01/27 08:09:46;;;;;;;;;;;;;;;-1.60;82.80;98720.05;105146;1256;108065;-66
2023/01/27 08:12:13;;;;;;;;;;;;;;;-1.64;82.45;98715.71;105134;1260;99599;-66
2023/01/27 08:14:40;;;;;;;;;;;;;;;-1.64;82.15;98717.17;105309;1257;99256;-67
2023/01/27 08:17:07;;;;;;;;;;;;;;;-1.63;81.80;98715.58;105160;1254;99270;-67
2023/01/27 08:19:34;;;;;;;;;;;;;;;-1.61;81.85;98719.69;105197;1254;99228;-66
2023/01/27 08:22:01;;;;;;;;;;;;;;;-1.58;81.67;98722.16;105182;1266;99367;-65
2023/01/27 08:24:28;;;;;;;;;;;;;;;-1.61;81.14;98725.96;105375;1257;99322;-67
2023/01/27 08:26:55;;;;;;;;;;;;;;;-1.63;80.79;98729.31;105151;1256;113742;-66
2023/01/27 08:29:22;;;;;;;;;;;;;;;-1.64;80.35;98725.40;105228;1256;99617;-66
2023/01/27 08:31:50;;;;;;;;;;;;;;;-1.62;80.57;98731.33;105283;1267;99456;-65
2023/01/27 08:34:17;;;;;;;;;;;;;;;-1.59;80.53;98730.84;105225;1256;99236;-66
2023/01/27 08:36:44;;;;;;;;;;;;;;;-1.57;79.90;98727.02;105279;1256;100544;-65
2023/01/27 08:39:11;;;;;;;;;;;;;;;-1.57;79.77;98735.45;105271;1257;100556;-66
2023/01/27 08:41:38;;;;;;;;;;;;;;;-1.58;78.57;98737.20;105312;1254;100545;-65
2023/01/27 08:44:05;;;;;;;;;;;;;;;-1.56;79.25;98738.50;105232;1256;99243;-65
2023/01/27 08:46:33;;;;;;;;;;;;;;;-1.57;78.31;98743.63;105261;1266;99815;-66
2023/01/27 08:48:59;;;;;;;;;;;;;;;-1.57;78.05;98745.95;105282;1254;99183;-66
2023/01/27 08:51:27;;;;;;;;;;;;;;;-1.51;78.48;98753.67;105179;1257;99256;-66
2023/01/27 08:53:54;;;;;;;;;;;;;;;-1.47;77.81;98753.53;105248;1257;108613;-65
2023/01/27 08:56:21;;;;;;;;;;;;;;;-1.43;77.83;98752.94;105056;1258;100663;-66
2023/01/27 08:58:51;;;;;;;;;;;;;;;-1.40;77.77;98754.20;105292;1257;99249;-65
2023/01/27 09:01:18;;;;;;;;;;;;;;;-1.36;77.80;98752.56;105352;1256;113578;-66
2023/01/27 09:03:46;;;;;;;;;;;;;;;-1.39;77.20;98754.39;105158;1268;99339;-66
2023/01/27 09:06:13;;;;;;;;;;;;;;;-1.39;77.66;98757.61;105266;1257;99243;-65
2023/01/27 09:08:41;;;;;;;;;;;;;;;-1.31;77.90;98755.74;105105;1256;99301;-65
2023/01/27 09:11:13;;;;;;;;;;;;;;;-1.20;77.57;98756.52;105304;1256;99346;-66
2023/01/27 09:13:40;;;;;;;;;;;;;;;-1.12;77.29;98760.69;105151;1257;112329;-70
2023/01/27 09:16:07;;;;;;;;;;;;;;;-1.12;76.52;98769.58;105501;1257;100170;-67
2023/01/27 09:18:35;;;;;;;;;;;;;;;-1.11;76.22;98771.26;105108;1260;108597;-68
2023/01/27 09:21:05;;;;;;;;;;;;;;;-1.11;75.87;98769.33;105331;1257;99370;-66
2023/01/27 09:23:33;;;;;;;;;;;;;;;-1.12;75.92;98773.98;105323;1254;99346;-68
2023/01/27 09:26:00;;;;;;;;;;;;;;;-1.16;75.03;98776.59;105107;1259;113342;-68
2023/01/27 09:28:27;;;;;;;;;;;;;;;-1.15;75.52;98777.14;105331;1255;100530;-68
2023/01/27 09:30:58;;;;;;;;;;;;;;;-1.12;74.95;98775.38;105251;1254;99317;-67
2023/01/27 09:33:26;;;;;;;;;;;;;;;-1.10;73.95;98774.73;105324;1257;99271;-65
2023/01/27 09:36:00;;;;;;;;;;;;;;;-1.06;73.83;98777.13;105270;1257;99427;-65
2023/01/27 09:38:30;;;;;;;;;;;;;;;-1.00;73.67;98772.21;105284;1256;113565;-65
2023/01/27 09:41:07;;;;;;;;;;;;;;;-0.94;72.54;98777.21;105195;1254;100138;-65
2023/01/27 09:43:40;;;;;;;;;;;;;;;-0.96;72.21;98777.77;105213;1254;108652;-65
2023/01/27 09:46:33;;;;;;;;;;;;;;;-0.99;72.27;98776.79;105195;1257;99325;-67
2023/01/27 09:49:00;;;;;;;;;;;;;;;-1.00;72.36;98774.98;105273;1268;99352;-65
2023/01/27 09:51:36;;;;;;;;;;;;;;;-1.02;72.39;98774.04;105271;1257;99335;-67
2023/01/27 09:54:09;;;;;;;;;;;;;;;-1.05;71.94;98775.36;105268;1257;100542;-65
2023/01/27 09:56:45;;;;;;;;;;;;;;;-1.05;72.23;98773.00;105129;1254;108672;-67
2023/01/27 09:59:31;;;;;;;;;;;;;;;-1.01;72.59;98769.09;105251;1267;99337;-65
2023/01/27 10:02:01;;;;;;;;;;;;;;;-0.97;72.64;98768.02;105269;1256;99294;-65
2023/01/27 10:04:33;;;;;;;;;;;;;;;-0.92;71.88;98766.61;105256;1256;112629;-66
2023/01/27 10:07:01;;;;;;;;;;;;;;;-0.93;71.63;98762.41;105206;1256;99293;-65
2023/01/27 10:09:55;;;;;;;;;;;;;;;-0.92;72.68;98765.66;105235;1257;107311;-65
2023/01/27 10:12:33;;;;;;;;;;;;;;;-0.89;72.30;98767.56;104934;1254;99335;-64
2023/01/27 10:15:12;;;;;;;;;;;;;;;-0.93;72.15;98770.04;105199;1257;99241;-66
2023/01/27 10:17:45;;;;;;;;;;;;;;;-1.03;72.27;98768.21;105337;1256;113338;-65
2023/01/27 10:20:23;;;;;;;;;;;;;;;-1.09;72.86;98761.67;105347;1256;99327;-66
2023/01/27 10:23:03;;;;;;;;;;;;;;;-1.16;72.81;98763.02;105341;1257;107742;-65
2023/01/27 10:25:33;;;;;;;;;;;;;;;-1.18;72.54;98761.64;105237;1273;100564;-65
2023/01/27 10:28:04;;;;;;;;;;;;;;;-1.17;72.16;98759.61;105286;1254;99236;-65
2023/01/27 10:30:33;;;;;;;;;;;;;;;-1.16;73.09;98759.59;105157;1257;113275;-65
2023/01/27 10:33:16;;;;;;;;;;;;;;;-1.13;73.55;98757.39;105229;1256;99377;-69
2023/01/27 10:35:46;;;;;;;;;;;;;;;-1.13;73.38;98763.31;105073;1256;108199;-71
2023/01/27 10:38:30;;;;;;;;;;;;;;;-1.12;73.73;98761.77;105260;1257;99253;-70
2023/01/27 10:41:05;;;;;;;;;;;;;;;-1.14;73.80;98764.85;105300;1254;100446;-68
2023/01/27 10:43:51;;;;;;;;;;;;;;;-1.17;74.00;98768.80;105305;1254;112572;-69
2023/01/27 10:46:24;;;;;;;;;;;;;;;-1.16;74.18;98767.38;105250;1257;99255;-68
2023/01/27 10:48:55;;;;;;;;;;;;;;;-1.16;73.75;98766.37;105215;1266;108611;-67
2023/01/27 10:51:33;;;;;;;;;;;;;;;-1.16;73.48;98769.52;105238;1266;99294;-66
2023/01/27 10:54:06;;;;;;;;;;;;;;;-1.18;73.02;98773.04;105284;1257;99342;-68
2023/01/27 10:56:38;;;;;;;;;;;;;;;-1.23;73.51;98767.33;105322;1270;113082;-66
2023/01/27 10:59:26;;;;;;;;;;;;;;;-1.24;73.47;98766.98;105192;1257;99316;-67
2023/01/27 11:02:06;;;;;;;;;;;;;;;-1.26;73.72;98771.66;104678;1264;107691;-65
2023/01/27 11:04:43;;;;;;;;;;;;;;;-1.26;73.75;98770.43;105251;1257;100535;-68
2023/01/27 11:07:21;;;;;;;;;;;;;;;-1.24;74.27;98771.78;105479;1269;99264;-69
2023/01/27 11:09:48;;;;;;;;;;;;;;;-1.28;73.62;98771.78;105155;1257;112606;-66
2023/01/27 11:12:15;;;;;;;;;;;;;;;-1.31;73.83;98773.15;105128;1257;99230;-69
2023/01/27 11:14:44;;;;;;;;;;;;;;;-1.30;73.96;98773.40;105020;1257;99447;-66
2023/01/27 11:17:12;;;;;;;;;;;;;;;-1.30;74.27;98767.23;105113;1254;99254;-68
2023/01/27 11:19:39;;;;;;;;;;;;;;;-1.30;74.40;98766.35;105168;1258;99405;-66
2023/01/27 11:22:15;;;;;;;;;;;;;;;-1.26;75.03;98769.25;105105;1259;99373;-66
2023/01/27 11:24:52;;;;;;;;;;;;;;;-1.24;74.68;98766.59;105303;1270;99272;-67
2023/01/27 11:27:35;;;;;;;;;;;;;;;-1.25;74.86;98765.61;105277;1254;108679;-69
2023/01/27 11:30:08;;;;;;;;;;;;;;;-1.25;75.09;98765.13;105199;1254;99336;-68
2023/01/27 11:32:46;;;;;;;;;;;;;;;-1.24;75.34;98759.82;105192;1257;99642;-66
2023/01/27 11:35:13;;;;;;;;;;;;;;;-1.24;75.73;98761.88;105235;1256;113525;-65
2023/01/27 11:37:42;;;;;;;;;;;;;;;-1.18;76.09;98765.25;105327;1266;99310;-65
2023/01/27 11:40:37;;;;;;;;;;;;;;;-1.18;76.30;98759.87;105210;1257;108667;-68
2023/01/27 11:43:04;;;;;;;;;;;;;;;-1.21;76.22;98757.73;105279;1257;99303;-65
2023/01/27 11:45:34;;;;;;;;;;;;;;;-1.17;76.35;98754.77;105254;1254;99310;-64
2023/01/27 11:48:04;;;;;;;;;;;;;;;-1.11;75.91;98757.16;105262;1267;113600;-65
2023/01/27 11:50:35;;;;;;;;;;;;;;;-1.07;75.82;98759.14;105201;1254;99844;-64
2023/01/27 11:53:15;;;;;;;;;;;;;;;-0.92;76.17;98759.63;105016;1256;109485;-65
2023/01/27 11:55:46;;;;;;;;;;;;;;;-0.77;76.50;98758.60;105107;1264;99230;-67
2023/01/27 11:58:18;;;;;;;;;;;;;;;-0.68;76.19;98756.91;105207;1257;99242;-71
2023/01/27 12:00:48;;;;;;;;;;;;;;;-0.67;76.21;98753.33;105267;1257;113328;-66
2023/01/27 12:03:19;;;;;;;;;;;;;;;-0.64;75.82;98749.95;105268;1255;99227;-66
2023/01/27 12:05:49;;;;;;;;;;;;;;;-0.68;75.18;98748.61;105223;1254;108465;-67
2023/01/27 12:08:35;;;;;;;;;;;;;;;-0.73;74.81;98756.15;105588;1266;99852;-66
2023/01/27 12:11:23;;;;;;;;;;;;;;;-0.82;74.19;98751.94;105235;1256;99265;-67
2023/01/27 12:13:52;;;;;;;;;;;;;;;-0.82;75.60;98753.27;105137;1256;112690;-68
2023/01/27 12:16:19;;;;;;;;;;;;;;;-0.76;76.13;98752.70;105063;1257;99205;-68
2023/01/27 12:18:49;;;;;;;;;;;;;;;-0.77;76.04;98745.73;105046;1257;107629;-68
2023/01/27 12:21:16;;;;;;;;;;;;;;;-0.74;76.05;98743.84;105169;1257;100667;-65
2023/01/27 12:23:48;;;;;;;;;;;;;;;-0.75;75.21;98742.27;105314;1257;99560;-66
2023/01/27 12:26:27;;;;;;;;;;;;;;;-0.75;75.47;98743.45;105243;1266;112237;-65
2023/01/27 12:28:56;;;;;;;;;;;;;;;-0.77;75.33;98744.77;104982;1257;100590;-67
2023/01/27 12:31:23;;;;;;;;;;;;;;;-0.82;75.18;98741.48;105310;1266;107027;-65
2023/01/27 12:33:58;;;;;;;;;;;;;;;-0.86;75.22;98741.14;105155;1257;100449;-64
2023/01/27 12:36:25;;;;;;;;;;;;;;;-0.92;75.37;98741.91;105067;1260;99249;-66
2023/01/27 12:38:59;;;;;;;;;;;;;;;-0.94;75.43;98742.04;105175;1257;114231;-66
2023/01/27 12:41:27;;;;;;;;;;;;;;;-0.94;75.23;98742.20;105173;1259;99302;-65
2023/01/27 12:43:56;;;;;;;;;;;;;;;-0.93;75.11;98739.86;104958;1254;107731;-65
2023/01/27 12:46:24;;;;;;;;;;;;;;;-0.90;75.16;98737.94;105144;1257;100554;-64
2023/01/27 12:48:53;;;;;;;;;;;;;;;-0.87;75.50;98736.98;105175;1254;99316;-65
2023/01/27 12:51:21;;;;;;;;;;;;;;;-0.85;75.94;98737.44;105195;1256;113450;-64
2023/01/27 12:53:49;;;;;;;;;;;;;;;-0.85;76.43;98737.77;105043;1260;99234;-65
2023/01/27 12:56:21;;;;;;;;;;;;;;;-0.87;76.53;98730.20;104949;1268;108307;-64
2023/01/27 12:58:49;;;;;;;;;;;;;;;-0.85;76.72;98729.95;105097;1259;100550;-65
2023/01/27 13:01:21;;;;;;;;;;;;;;;-0.81;76.96;98731.66;105074;1259;99246;-65
2023/01/27 13:03:49;;;;;;;;;;;;;;;-0.82;76.55;98730.23;105011;1257;112266;-64
2023/01/27 13:06:18;;;;;;;;;;;;;;;-0.81;76.67;98731.02;105113;1257;99228;-65
2023/01/27 13:08:48;;;;;;;;;;;;;;;-0.85;76.11;98732.02;105135;1267;108758;-64
2023/01/27 13:11:19;;;;;;;;;;;;;;;-0.86;76.23;98730.09;105105;1268;99354;-64